createdAt,value
2018-08-23T00:00:30.863Z,22.57
2018-08-23T00:01:30.860Z,22.57
2018-08-23T00:02:30.861Z,22.51
2018-08-23T00:03:30.871Z,22.51
2018-08-23T00:04:30.855Z,22.57
2018-08-23T00:05:30.865Z,22.45
2018-08-23T00:06:30.855Z,22.43
2018-08-23T00:07:30.850Z,22.38
2018-08-23T00:08:30.859Z,22.30
2018-08-23T00:09:30.859Z,22.29
2018-08-23T00:10:30.857Z,22.23
2018-08-23T00:11:30.845Z,22.25
2018-08-23T00:12:30.879Z,22.23
2018-08-23T00:13:30.847Z,22.22
2018-08-23T00:14:30.856Z,22.26
2018-08-23T00:15:30.847Z,22.22
2018-08-23T00:16:30.838Z,22.18
2018-08-23T00:17:30.842Z,22.26
2018-08-23T00:18:30.842Z,22.18
2018-08-23T00:19:30.841Z,22.23
2018-08-23T00:20:30.832Z,22.18
2018-08-23T00:21:30.836Z,22.20
2018-08-23T00:22:30.836Z,22.22
2018-08-23T00:23:30.830Z,22.22
2018-08-23T00:24:30.832Z,22.17
2018-08-23T00:25:30.836Z,22.14
2018-08-23T00:26:30.826Z,22.13
2018-08-23T00:27:30.828Z,22.14
2018-08-23T00:28:30.828Z,22.10
2018-08-23T00:29:30.822Z,22.08
2018-08-23T00:30:30.820Z,21.99
2018-08-23T00:31:30.832Z,22.06
2018-08-23T00:32:30.813Z,22.06
2018-08-23T00:33:30.817Z,22.02
2018-08-23T00:34:30.819Z,22.04
2018-08-23T00:35:30.815Z,21.95
2018-08-23T00:36:30.814Z,21.91
2018-08-23T00:37:30.816Z,21.99
2018-08-23T00:38:30.807Z,21.92
2018-08-23T00:39:30.810Z,21.85
2018-08-23T00:40:30.805Z,21.92
2018-08-23T00:41:30.803Z,21.89
2018-08-23T00:42:30.799Z,21.85
2018-08-23T00:43:30.804Z,21.82
2018-08-23T00:44:30.797Z,21.69
2018-08-23T00:45:30.801Z,21.82
2018-08-23T00:46:30.797Z,21.75
2018-08-23T00:47:30.792Z,21.70
2018-08-23T00:48:30.799Z,21.70
2018-08-23T00:49:30.789Z,21.69
2018-08-23T00:50:30.788Z,21.73
2018-08-23T00:51:30.786Z,21.58
2018-08-23T00:52:30.790Z,21.62
2018-08-23T00:53:30.782Z,21.60
2018-08-23T00:54:30.780Z,21.62
2018-08-23T00:55:30.779Z,21.57
2018-08-23T00:56:45.413Z,21.57
2018-08-23T00:57:30.774Z,21.57
2018-08-23T00:58:30.775Z,21.52
2018-08-23T00:59:30.773Z,21.45
2018-08-23T01:00:30.775Z,21.55
2018-08-23T01:01:30.771Z,21.50
2018-08-23T01:02:30.767Z,21.46
2018-08-23T01:03:30.767Z,21.46
2018-08-23T01:04:30.766Z,21.43
2018-08-23T01:05:30.760Z,21.46
2018-08-23T01:06:30.765Z,21.36
2018-08-23T01:07:30.761Z,21.36
2018-08-23T01:08:30.760Z,21.33
2018-08-23T01:09:30.765Z,21.33
2018-08-23T01:10:30.755Z,21.33
2018-08-23T01:11:30.749Z,21.33
2018-08-23T01:12:30.755Z,21.32
2018-08-23T01:13:30.759Z,21.32
2018-08-23T01:14:30.742Z,21.30
2018-08-23T01:15:30.745Z,21.30
2018-08-23T01:16:30.745Z,21.29
2018-08-23T01:17:30.743Z,21.32
2018-08-23T01:18:30.738Z,21.30
2018-08-23T01:19:30.740Z,21.27
2018-08-23T01:20:30.735Z,21.18
2018-08-23T01:21:31.400Z,21.18
2018-08-23T01:22:30.737Z,21.22
2018-08-23T01:23:30.732Z,21.06
2018-08-23T01:24:30.730Z,21.09
2018-08-23T01:25:30.728Z,21.05
2018-08-23T01:26:30.722Z,21.05
2018-08-23T01:27:30.718Z,21.06
2018-08-23T01:28:30.725Z,20.93
2018-08-23T01:29:30.717Z,20.96
2018-08-23T01:30:30.717Z,20.99
2018-08-23T01:31:30.713Z,20.95
2018-08-23T01:32:30.712Z,21.00
2018-08-23T01:33:30.714Z,20.96
2018-08-23T01:34:30.708Z,20.93
2018-08-23T01:35:30.707Z,20.95
2018-08-23T01:36:30.704Z,20.95
2018-08-23T01:37:30.707Z,20.96
2018-08-23T01:38:30.704Z,20.95
2018-08-23T01:39:30.698Z,20.93
2018-08-23T01:40:30.697Z,20.92
2018-08-23T01:41:30.696Z,20.84
2018-08-23T01:42:30.692Z,20.90
2018-08-23T01:43:30.687Z,20.88
2018-08-23T01:44:30.689Z,20.88
2018-08-23T01:45:30.688Z,20.81
2018-08-23T01:46:30.684Z,20.80
2018-08-23T01:47:30.684Z,20.77
2018-08-23T01:48:30.689Z,20.72
2018-08-23T01:49:30.681Z,20.81
2018-08-23T01:50:30.677Z,20.81
2018-08-23T01:51:30.672Z,20.78
2018-08-23T01:52:30.670Z,20.70
2018-08-23T01:53:30.685Z,20.70
2018-08-23T01:54:30.666Z,20.66
2018-08-23T01:55:30.668Z,20.65
2018-08-23T01:56:30.673Z,20.62
2018-08-23T01:57:30.663Z,20.63
2018-08-23T01:58:30.657Z,20.63
2018-08-23T01:59:30.661Z,20.65
2018-08-23T02:00:30.654Z,20.66
2018-08-23T02:01:30.655Z,20.63
2018-08-23T02:02:30.657Z,20.67
2018-08-23T02:03:30.646Z,20.63
2018-08-23T02:04:30.645Z,20.60
2018-08-23T02:05:30.648Z,20.66
2018-08-23T02:06:30.640Z,20.63
2018-08-23T02:07:30.638Z,20.65
2018-08-23T02:08:30.638Z,20.66
2018-08-23T02:09:30.638Z,20.66
2018-08-23T02:10:30.640Z,20.65
2018-08-23T02:11:30.634Z,20.69
2018-08-23T02:12:30.629Z,20.65
2018-08-23T02:13:30.633Z,20.52
2018-08-23T02:14:30.620Z,20.56
2018-08-23T02:15:30.628Z,20.58
2018-08-23T02:16:30.622Z,20.50
2018-08-23T02:17:30.616Z,20.55
2018-08-23T02:18:30.618Z,20.59
2018-08-23T02:19:30.614Z,20.52
2018-08-23T02:20:30.623Z,20.55
2018-08-23T02:21:30.612Z,20.55
2018-08-23T02:22:30.608Z,20.51
2018-08-23T02:23:30.608Z,20.51
2018-08-23T02:24:30.609Z,20.50
2018-08-23T02:25:30.600Z,20.56
2018-08-23T02:26:30.601Z,20.56
2018-08-23T02:27:30.594Z,20.56
2018-08-23T02:28:30.594Z,20.55
2018-08-23T02:29:30.596Z,20.56
2018-08-23T02:30:30.590Z,20.56
2018-08-23T02:31:30.589Z,20.56
2018-08-23T02:32:30.590Z,20.59
2018-08-23T02:33:30.584Z,20.56
2018-08-23T02:34:30.587Z,20.58
2018-08-23T02:35:30.580Z,20.52
2018-08-23T02:36:30.574Z,20.58
2018-08-23T02:37:30.574Z,20.58
2018-08-23T02:38:30.575Z,20.59
2018-08-23T02:39:30.571Z,20.56
2018-08-23T02:40:30.568Z,20.62
2018-08-23T02:41:30.570Z,20.52
2018-08-23T02:42:30.564Z,20.63
2018-08-23T02:43:30.563Z,20.60
2018-08-23T02:44:30.570Z,20.56
2018-08-23T02:45:30.560Z,20.52
2018-08-23T02:46:30.556Z,20.63
2018-08-23T02:47:30.559Z,20.59
2018-08-23T02:48:30.552Z,20.55
2018-08-23T02:49:30.551Z,20.48
2018-08-23T02:50:30.545Z,20.48
2018-08-23T02:51:30.541Z,20.44
2018-08-23T02:52:30.546Z,20.43
2018-08-23T02:53:30.541Z,20.40
2018-08-23T02:54:30.541Z,20.34
2018-08-23T02:55:30.545Z,20.39
2018-08-23T02:56:30.535Z,20.26
2018-08-23T02:57:30.529Z,20.25
2018-08-23T02:58:30.531Z,20.31
2018-08-23T02:59:30.525Z,20.22
2018-08-23T03:00:30.534Z,20.22
2018-08-23T03:01:30.525Z,20.14
2018-08-23T03:02:30.517Z,20.18
2018-08-23T03:03:30.517Z,20.18
2018-08-23T03:04:30.522Z,20.03
2018-08-23T03:05:30.513Z,20.16
2018-08-23T03:06:30.559Z,20.09
2018-08-23T03:07:30.505Z,20.14
2018-08-23T03:08:30.502Z,20.11
2018-08-23T03:09:30.506Z,20.16
2018-08-23T03:10:30.502Z,20.19
2018-08-23T03:11:30.510Z,20.10
2018-08-23T03:12:30.495Z,20.11
2018-08-23T03:13:30.497Z,20.10
2018-08-23T03:14:30.494Z,20.04
2018-08-23T03:15:30.491Z,19.96
2018-08-23T03:16:30.486Z,20.03
2018-08-23T03:17:30.496Z,20.02
2018-08-23T03:18:30.485Z,20.02
2018-08-23T03:19:30.481Z,19.95
2018-08-23T03:20:30.484Z,19.94
2018-08-23T03:21:30.488Z,19.86
2018-08-23T03:22:30.473Z,19.81
2018-08-23T03:23:30.470Z,19.84
2018-08-23T03:24:30.471Z,19.86
2018-08-23T03:25:30.467Z,19.91
2018-08-23T03:26:30.465Z,19.84
2018-08-23T03:27:30.463Z,19.84
2018-08-23T03:28:30.464Z,19.70
2018-08-23T03:29:30.459Z,19.71
2018-08-23T03:30:30.458Z,19.82
2018-08-23T03:31:30.451Z,19.74
2018-08-23T03:32:30.449Z,19.71
2018-08-23T03:33:30.450Z,19.70
2018-08-23T03:34:30.445Z,19.73
2018-08-23T03:35:30.444Z,19.71
2018-08-23T03:36:30.444Z,19.77
2018-08-23T03:37:30.441Z,19.73
2018-08-23T03:38:30.432Z,19.66
2018-08-23T03:39:30.435Z,19.76
2018-08-23T03:40:30.433Z,19.71
2018-08-23T03:41:30.429Z,19.70
2018-08-23T03:42:30.436Z,19.73
2018-08-23T03:43:30.431Z,19.76
2018-08-23T03:44:30.418Z,19.64
2018-08-23T03:45:30.421Z,19.67
2018-08-23T03:46:30.413Z,19.62
2018-08-23T03:47:30.411Z,19.67
2018-08-23T03:48:30.411Z,19.71
2018-08-23T03:49:30.418Z,19.64
2018-08-23T03:50:30.407Z,19.67
2018-08-23T03:51:30.406Z,19.67
2018-08-23T03:52:30.448Z,19.63
2018-08-23T03:53:30.401Z,19.56
2018-08-23T03:54:30.393Z,19.59
2018-08-23T03:55:30.396Z,19.71
2018-08-23T03:56:30.397Z,19.59
2018-08-23T03:57:30.395Z,19.55
2018-08-23T03:58:30.388Z,19.51
2018-08-23T03:59:30.382Z,19.51
2018-08-23T04:00:30.377Z,19.48
2018-08-23T04:01:30.381Z,19.48
2018-08-23T04:02:30.371Z,19.54
2018-08-23T04:03:30.372Z,19.40
2018-08-23T04:04:30.371Z,19.55
2018-08-23T04:05:30.368Z,19.47
2018-08-23T04:06:30.366Z,19.55
2018-08-23T04:07:30.364Z,19.47
2018-08-23T04:08:30.362Z,19.45
2018-08-23T04:09:30.358Z,19.41
2018-08-23T04:10:30.356Z,19.45
2018-08-23T04:11:30.358Z,19.41
2018-08-23T04:12:30.353Z,19.34
2018-08-23T04:13:30.349Z,19.34
2018-08-23T04:14:30.339Z,19.33
2018-08-23T04:15:30.448Z,19.27
2018-08-23T04:16:30.342Z,19.33
2018-08-23T04:17:30.346Z,19.48
2018-08-23T04:18:30.336Z,19.44
2018-08-23T04:19:30.340Z,19.41
2018-08-23T04:20:30.326Z,19.36
2018-08-23T04:21:30.324Z,19.27
2018-08-23T04:22:30.335Z,19.41
2018-08-23T04:23:30.327Z,19.48
2018-08-23T04:24:30.317Z,19.41
2018-08-23T04:25:30.313Z,19.37
2018-08-23T04:26:30.313Z,19.34
2018-08-23T04:27:30.310Z,19.33
2018-08-23T04:28:30.312Z,19.34
2018-08-23T04:29:30.312Z,19.33
2018-08-23T04:30:30.305Z,19.31
2018-08-23T04:31:30.295Z,19.36
2018-08-23T04:32:30.299Z,19.30
2018-08-23T04:33:30.293Z,19.33
2018-08-23T04:34:30.292Z,19.16
2018-08-23T04:35:30.290Z,19.30
2018-08-23T04:36:30.285Z,19.21
2018-08-23T04:37:30.288Z,19.21
2018-08-23T04:38:30.277Z,19.19
2018-08-23T04:39:30.277Z,19.21
2018-08-23T04:40:30.293Z,19.16
2018-08-23T04:41:30.274Z,19.18
2018-08-23T04:42:30.269Z,19.08
2018-08-23T04:43:30.263Z,19.14
2018-08-23T04:44:30.265Z,19.21
2018-08-23T04:45:30.268Z,19.12
2018-08-23T04:46:30.257Z,19.21
2018-08-23T04:47:30.259Z,19.18
2018-08-23T04:48:30.254Z,19.21
2018-08-23T04:49:30.251Z,19.19
2018-08-23T04:50:30.251Z,19.16
2018-08-23T04:51:30.248Z,19.15
2018-08-23T04:52:30.244Z,19.15
2018-08-23T04:53:30.249Z,19.09
2018-08-23T04:54:30.237Z,19.15
2018-08-23T04:55:30.262Z,19.14
2018-08-23T04:56:30.239Z,19.08
2018-08-23T04:57:30.233Z,19.15
2018-08-23T04:58:30.227Z,19.11
2018-08-23T04:59:30.227Z,19.15
2018-08-23T05:00:30.222Z,19.16
2018-08-23T05:01:30.223Z,19.16
2018-08-23T05:02:30.229Z,19.16
2018-08-23T05:03:30.217Z,19.19
2018-08-23T05:04:30.213Z,19.21
2018-08-23T05:05:30.207Z,19.19
2018-08-23T05:06:30.204Z,19.14
2018-08-23T05:07:30.208Z,19.18
2018-08-23T05:08:30.200Z,19.26
2018-08-23T05:09:30.201Z,19.27
2018-08-23T05:10:30.202Z,19.21
2018-08-23T05:11:30.192Z,19.19
2018-08-23T05:12:30.187Z,19.27
2018-08-23T05:13:30.187Z,19.29
2018-08-23T05:14:30.184Z,19.26
2018-08-23T05:15:30.182Z,19.37
2018-08-23T05:16:30.183Z,19.30
2018-08-23T05:17:30.178Z,19.36
2018-08-23T05:18:30.182Z,19.34
2018-08-23T05:19:30.171Z,19.39
2018-08-23T05:20:30.171Z,19.33
2018-08-23T05:21:30.173Z,19.41
2018-08-23T05:22:30.164Z,19.30
2018-08-23T05:23:30.164Z,19.37
2018-08-23T05:24:31.047Z,19.37
2018-08-23T05:25:30.164Z,19.39
2018-08-23T05:26:30.157Z,19.37
2018-08-23T05:27:30.172Z,19.40
2018-08-23T05:28:30.151Z,19.44
2018-08-23T05:29:30.150Z,19.51
2018-08-23T05:30:30.148Z,19.48
2018-08-23T05:31:30.146Z,19.41
2018-08-23T05:32:30.141Z,19.49
2018-08-23T05:33:30.143Z,19.52
2018-08-23T05:34:30.138Z,19.59
2018-08-23T05:35:30.141Z,19.67
2018-08-23T05:36:30.132Z,19.63
2018-08-23T05:37:30.153Z,19.73
2018-08-23T05:38:30.128Z,19.76
2018-08-23T05:39:30.129Z,19.79
2018-08-23T05:40:30.133Z,19.81
2018-08-23T05:41:30.120Z,19.85
2018-08-23T05:42:30.119Z,19.82
2018-08-23T05:43:30.121Z,19.91
2018-08-23T05:44:30.113Z,19.96
2018-08-23T05:45:30.109Z,20.02
2018-08-23T05:46:30.113Z,19.99
2018-08-23T05:47:30.119Z,20.09
2018-08-23T05:48:30.113Z,20.13
2018-08-23T05:49:30.101Z,20.26
2018-08-23T05:50:30.100Z,20.22
2018-08-23T05:51:30.100Z,20.25
2018-08-23T05:52:30.097Z,20.26
2018-08-23T05:53:30.094Z,20.26
2018-08-23T05:54:30.102Z,20.28
2018-08-23T05:55:30.095Z,20.29
2018-08-23T05:56:30.086Z,20.25
2018-08-23T05:57:30.084Z,20.26
2018-08-23T05:58:30.083Z,20.36
2018-08-23T05:59:30.085Z,20.37
2018-08-23T06:00:30.082Z,20.34
2018-08-23T06:01:30.083Z,20.37
2018-08-23T06:02:30.077Z,20.39
2018-08-23T06:03:30.076Z,20.28
2018-08-23T06:04:30.072Z,20.31
2018-08-23T06:05:30.073Z,20.28
2018-08-23T06:06:30.066Z,20.34
2018-08-23T06:07:30.070Z,20.28
2018-08-23T06:08:30.072Z,20.29
2018-08-23T06:09:30.067Z,20.24
2018-08-23T06:10:30.063Z,20.26
2018-08-23T06:11:30.062Z,20.24
2018-08-23T06:12:30.058Z,20.25
2018-08-23T06:13:30.058Z,20.25
2018-08-23T06:14:30.057Z,20.25
2018-08-23T06:15:30.054Z,20.29
2018-08-23T06:16:30.052Z,20.25
2018-08-23T06:17:30.048Z,20.39
2018-08-23T06:18:30.047Z,20.34
2018-08-23T06:19:30.046Z,20.39
2018-08-23T06:20:30.045Z,20.36
2018-08-23T06:21:30.047Z,20.50
2018-08-23T06:22:30.044Z,20.52
2018-08-23T06:23:30.037Z,20.67
2018-08-23T06:24:30.044Z,20.62
2018-08-23T06:25:30.046Z,20.69
2018-08-23T06:26:30.032Z,20.75
2018-08-23T06:27:30.128Z,20.84
2018-08-23T06:28:30.047Z,20.82
2018-08-23T06:29:30.032Z,20.92
2018-08-23T06:30:30.030Z,20.88
2018-08-23T06:31:30.029Z,20.92
2018-08-23T06:32:30.031Z,20.90
2018-08-23T06:33:30.193Z,20.87
2018-08-23T06:34:30.128Z,20.90
2018-08-23T06:35:30.080Z,20.96
2018-08-23T06:36:30.023Z,20.96
2018-08-23T06:37:30.026Z,20.87
2018-08-23T06:38:30.033Z,21.02
2018-08-23T06:39:30.037Z,21.02
2018-08-23T06:40:30.013Z,21.03
2018-08-23T06:41:30.017Z,21.07
2018-08-23T06:42:30.016Z,21.09
2018-08-23T06:43:30.014Z,21.07
2018-08-23T06:44:30.031Z,21.09
2018-08-23T06:45:30.017Z,21.09
2018-08-23T06:46:30.014Z,21.09
2018-08-23T06:47:30.009Z,21.11
2018-08-23T06:48:30.004Z,21.05
2018-08-23T06:49:30.023Z,21.18
2018-08-23T06:50:30.006Z,21.17
2018-08-23T06:51:30.002Z,21.20
2018-08-23T06:52:30.004Z,21.20
2018-08-23T06:53:30.004Z,21.18
2018-08-23T06:54:29.996Z,21.35
2018-08-23T06:55:30.003Z,21.32
2018-08-23T06:56:30.018Z,21.30
2018-08-23T06:57:29.997Z,21.36
2018-08-23T06:58:30.000Z,21.35
2018-08-23T06:59:29.996Z,21.42
2018-08-23T07:00:30.002Z,21.33
2018-08-23T07:01:30.021Z,21.48
2018-08-23T07:02:29.995Z,21.46
2018-08-23T07:03:29.991Z,21.45
2018-08-23T07:04:29.990Z,21.46
2018-08-23T07:05:30.045Z,21.36
2018-08-23T07:06:29.998Z,21.42
2018-08-23T07:07:30.617Z,21.45
2018-08-23T07:08:29.984Z,21.50
2018-08-23T07:09:29.982Z,21.46
2018-08-23T07:10:30.008Z,21.51
2018-08-23T07:11:29.989Z,21.54
2018-08-23T07:12:29.982Z,21.70
2018-08-23T07:13:29.979Z,21.67
2018-08-23T07:14:29.976Z,21.69
2018-08-23T07:15:29.974Z,21.67
2018-08-23T07:16:29.975Z,21.75
2018-08-23T07:17:30.049Z,21.77
2018-08-23T07:18:29.991Z,21.89
2018-08-23T07:19:29.974Z,21.92
2018-08-23T07:20:29.976Z,21.99
2018-08-23T07:21:29.970Z,21.96
2018-08-23T07:22:30.009Z,21.96
2018-08-23T07:23:29.967Z,22.10
2018-08-23T07:24:29.968Z,22.10
2018-08-23T07:25:29.966Z,22.10
2018-08-23T07:26:29.968Z,22.10
2018-08-23T07:27:29.968Z,22.13
2018-08-23T07:28:29.963Z,22.08
2018-08-23T07:29:29.978Z,22.13
2018-08-23T07:30:29.959Z,22.20
2018-08-23T07:31:29.967Z,22.17
2018-08-23T07:32:29.989Z,22.23
2018-08-23T07:33:29.963Z,22.30
2018-08-23T07:34:29.959Z,22.33
2018-08-23T07:35:29.956Z,22.51
2018-08-23T07:36:29.955Z,22.55
2018-08-23T07:37:29.961Z,22.54
2018-08-23T07:38:29.955Z,22.69
2018-08-23T07:39:29.959Z,22.75
2018-08-23T07:40:29.963Z,22.70
2018-08-23T07:41:29.956Z,22.81
2018-08-23T07:42:29.953Z,22.98
2018-08-23T07:43:29.949Z,22.98
2018-08-23T07:44:29.955Z,23.05
2018-08-23T07:45:29.950Z,23.21
2018-08-23T07:46:29.993Z,23.28
2018-08-23T07:47:29.947Z,23.34
2018-08-23T07:48:29.968Z,23.61
2018-08-23T07:49:29.952Z,23.63
2018-08-23T07:50:29.953Z,23.80
2018-08-23T07:51:29.951Z,23.91
2018-08-23T07:52:29.970Z,23.91
2018-08-23T07:53:30.103Z,23.98
2018-08-23T07:54:29.953Z,24.03
2018-08-23T07:55:29.951Z,24.05
2018-08-23T07:56:29.952Z,24.16
2018-08-23T07:57:29.956Z,24.16
2018-08-23T07:58:29.964Z,24.17
2018-08-23T07:59:29.952Z,24.20
2018-08-23T08:00:29.953Z,24.20
2018-08-23T08:01:29.961Z,24.35
2018-08-23T08:02:29.965Z,24.33
2018-08-23T08:03:29.993Z,24.39
2018-08-23T08:04:29.961Z,24.45
2018-08-23T08:05:29.960Z,24.58
2018-08-23T08:06:29.967Z,24.70
2018-08-23T08:07:29.968Z,24.65
2018-08-23T08:08:29.998Z,24.84
2018-08-23T08:09:29.997Z,24.93
2018-08-23T08:10:29.968Z,25.13
2018-08-23T08:11:29.971Z,25.28
2018-08-23T08:12:29.969Z,25.29
2018-08-23T08:13:29.981Z,25.36
2018-08-23T08:14:29.972Z,25.36
2018-08-23T08:15:29.975Z,25.43
2018-08-23T08:16:29.979Z,25.55
2018-08-23T08:17:29.983Z,25.58
2018-08-23T08:18:29.978Z,25.65
2018-08-23T08:19:29.984Z,25.80
2018-08-23T08:20:29.985Z,25.84
2018-08-23T08:21:30.042Z,25.99
2018-08-23T08:22:29.986Z,26.10
2018-08-23T08:23:29.992Z,26.05
2018-08-23T08:24:29.992Z,26.07
2018-08-23T08:25:29.999Z,26.02
2018-08-23T08:26:29.997Z,26.00
2018-08-23T08:27:30.002Z,25.95
2018-08-23T08:28:30.010Z,25.96
2018-08-23T08:29:30.012Z,26.00
2018-08-23T08:30:30.015Z,26.05
2018-08-23T08:31:30.020Z,26.19
2018-08-23T08:32:30.018Z,26.36
2018-08-23T08:33:30.023Z,26.47
2018-08-23T08:34:30.027Z,26.56
2018-08-23T08:35:30.035Z,26.88
2018-08-23T08:36:30.038Z,26.95
2018-08-23T08:37:30.039Z,26.95
2018-08-23T08:38:30.042Z,27.02
2018-08-23T08:39:30.049Z,27.14
2018-08-23T08:40:30.049Z,27.21
2018-08-23T08:41:30.052Z,27.33
2018-08-23T08:42:30.069Z,27.55
2018-08-23T08:43:30.067Z,27.60
2018-08-23T08:44:30.072Z,27.73
2018-08-23T08:45:30.075Z,27.87
2018-08-23T08:46:30.079Z,28.07
2018-08-23T08:47:30.087Z,28.35
2018-08-23T08:48:30.088Z,28.33
2018-08-23T08:49:30.097Z,28.25
2018-08-23T08:50:30.143Z,28.30
2018-08-23T08:51:30.104Z,28.44
2018-08-23T08:52:30.113Z,28.39
2018-08-23T08:53:30.120Z,28.41
2018-08-23T08:54:30.118Z,28.49
2018-08-23T08:55:30.136Z,28.56
2018-08-23T08:56:30.142Z,28.66
2018-08-23T08:57:30.156Z,28.70
2018-08-23T08:58:30.158Z,28.78
2018-08-23T08:59:30.152Z,28.79
2018-08-23T09:00:30.157Z,28.91
2018-08-23T09:01:30.188Z,28.86
2018-08-23T09:02:30.181Z,28.89
2018-08-23T09:03:30.175Z,28.97
2018-08-23T09:04:30.181Z,29.01
2018-08-23T09:05:30.210Z,29.08
2018-08-23T09:06:30.194Z,29.23
2018-08-23T09:07:30.200Z,29.32
2018-08-23T09:08:30.206Z,29.35
2018-08-23T09:09:30.217Z,29.51
2018-08-23T09:10:30.216Z,29.44
2018-08-23T09:11:30.245Z,29.51
2018-08-23T09:12:30.236Z,29.63
2018-08-23T09:13:30.238Z,29.68
2018-08-23T09:14:30.245Z,29.82
2018-08-23T09:15:30.272Z,29.91
2018-08-23T09:16:30.263Z,30.00
2018-08-23T09:17:30.275Z,29.90
2018-08-23T09:18:30.275Z,29.94
2018-08-23T09:19:30.283Z,29.98
2018-08-23T09:20:30.327Z,30.02
2018-08-23T09:21:30.292Z,30.06
2018-08-23T09:22:30.311Z,30.27
2018-08-23T09:23:30.310Z,30.32
2018-08-23T09:24:30.314Z,30.30
2018-08-23T09:25:30.319Z,30.32
2018-08-23T09:26:30.328Z,30.24
2018-08-23T09:27:30.333Z,30.31
2018-08-23T09:28:30.339Z,30.24
2018-08-23T09:29:30.359Z,30.18
2018-08-23T09:30:30.354Z,30.16
2018-08-23T09:31:30.362Z,30.13
2018-08-23T09:32:30.367Z,30.10
2018-08-23T09:33:30.374Z,30.03
2018-08-23T09:34:30.379Z,29.88
2018-08-23T09:35:30.390Z,29.78
2018-08-23T09:36:30.396Z,29.90
2018-08-23T09:37:30.409Z,30.09
2018-08-23T09:38:30.409Z,30.18
2018-08-23T09:39:30.420Z,30.30
2018-08-23T09:40:30.431Z,30.53
2018-08-23T09:41:30.437Z,30.70
2018-08-23T09:42:30.439Z,30.78
2018-08-23T09:43:30.447Z,31.03
2018-08-23T09:44:30.460Z,31.02
2018-08-23T09:45:30.464Z,30.81
2018-08-23T09:46:30.471Z,30.72
2018-08-23T09:47:30.480Z,30.90
2018-08-23T09:48:30.489Z,30.99
2018-08-23T09:49:30.497Z,31.00
2018-08-23T09:50:30.504Z,30.90
2018-08-23T09:51:30.509Z,30.65
2018-08-23T09:52:30.518Z,30.31
2018-08-23T09:53:30.522Z,30.23
2018-08-23T09:54:30.530Z,30.21
2018-08-23T09:55:30.539Z,30.18
2018-08-23T09:56:30.605Z,30.34
2018-08-23T09:57:30.562Z,30.31
2018-08-23T09:58:30.559Z,30.31
2018-08-23T09:59:30.569Z,30.39
2018-08-23T10:00:30.575Z,30.47
2018-08-23T10:01:30.581Z,30.47
2018-08-23T10:02:30.589Z,30.32
2018-08-23T10:03:30.596Z,30.23
2018-08-23T10:04:30.606Z,30.12
2018-08-23T10:05:30.612Z,29.95
2018-08-23T10:06:30.615Z,30.13
2018-08-23T10:07:30.622Z,29.97
2018-08-23T10:08:30.630Z,29.90
2018-08-23T10:09:30.640Z,29.84
2018-08-23T10:10:30.644Z,29.69
2018-08-23T10:11:30.733Z,29.71
2018-08-23T10:12:30.653Z,29.47
2018-08-23T10:13:30.662Z,29.31
2018-08-23T10:14:30.667Z,29.17
2018-08-23T10:15:30.676Z,29.14
2018-08-23T10:16:30.678Z,29.24
2018-08-23T10:17:30.694Z,29.38
2018-08-23T10:18:30.688Z,29.51
2018-08-23T10:19:30.691Z,29.57
2018-08-23T10:20:30.697Z,29.84
2018-08-23T10:21:30.709Z,29.93
2018-08-23T10:22:30.711Z,30.10
2018-08-23T10:23:30.721Z,30.31
2018-08-23T10:24:30.720Z,30.69
2018-08-23T10:25:30.738Z,30.81
2018-08-23T10:26:30.791Z,30.97
2018-08-23T10:27:30.740Z,31.14
2018-08-23T10:28:30.750Z,31.07
2018-08-23T10:29:30.760Z,31.14
2018-08-23T10:30:30.758Z,31.31
2018-08-23T10:31:30.765Z,31.25
2018-08-23T10:32:30.772Z,31.15
2018-08-23T10:33:30.791Z,31.17
2018-08-23T10:34:30.785Z,31.24
2018-08-23T10:35:30.786Z,31.22
2018-08-23T10:36:30.802Z,31.15
2018-08-23T10:37:30.810Z,31.20
2018-08-23T10:38:30.825Z,31.10
2018-08-23T10:39:30.809Z,31.25
2018-08-23T10:40:30.824Z,31.27
2018-08-23T10:41:30.822Z,31.21
2018-08-23T10:42:30.835Z,31.20
2018-08-23T10:43:30.838Z,31.12
2018-08-23T10:44:30.909Z,31.03
2018-08-23T10:45:30.855Z,31.00
2018-08-23T10:46:30.855Z,30.97
2018-08-23T10:47:30.862Z,31.06
2018-08-23T10:48:30.868Z,31.06
2018-08-23T10:49:30.876Z,31.02
2018-08-23T10:50:30.926Z,31.02
2018-08-23T10:51:30.894Z,31.00
2018-08-23T10:52:30.896Z,31.03
2018-08-23T10:53:30.918Z,31.00
2018-08-23T10:54:30.908Z,30.73
2018-08-23T10:55:30.913Z,30.65
2018-08-23T10:56:30.936Z,30.54
2018-08-23T10:57:30.923Z,30.55
2018-08-23T10:58:30.932Z,30.51
2018-08-23T10:59:30.940Z,30.51
2018-08-23T11:00:30.941Z,30.47
2018-08-23T11:01:30.946Z,30.40
2018-08-23T11:02:30.953Z,30.34
2018-08-23T11:03:30.960Z,30.30
2018-08-23T11:04:30.968Z,30.35
2018-08-23T11:05:30.970Z,30.61
2018-08-23T11:06:30.976Z,30.63
2018-08-23T11:07:30.977Z,30.87
2018-08-23T11:08:30.986Z,30.66
2018-08-23T11:09:30.993Z,30.68
2018-08-23T11:10:30.998Z,30.73
2018-08-23T11:11:31.002Z,30.70
2018-08-23T11:12:31.008Z,30.70
2018-08-23T11:13:31.017Z,30.81
2018-08-23T11:14:31.020Z,30.84
2018-08-23T11:15:31.027Z,30.73
2018-08-23T11:16:31.032Z,30.73
2018-08-23T11:17:31.036Z,30.68
2018-08-23T11:18:31.045Z,30.63
2018-08-23T11:19:31.047Z,30.69
2018-08-23T11:20:31.055Z,30.51
2018-08-23T11:21:31.058Z,30.40
2018-08-23T11:22:31.063Z,30.61
2018-08-23T11:23:31.062Z,30.73
2018-08-23T11:24:31.072Z,30.81
2018-08-23T11:25:31.078Z,30.91
2018-08-23T11:26:31.086Z,31.22
2018-08-23T11:27:31.090Z,31.34
2018-08-23T11:28:31.104Z,31.52
2018-08-23T11:29:31.144Z,31.74
2018-08-23T11:30:31.102Z,31.84
2018-08-23T11:31:31.108Z,32.16
2018-08-23T11:32:31.118Z,32.38
2018-08-23T11:33:31.128Z,32.63
2018-08-23T11:34:31.136Z,32.60
2018-08-23T11:35:31.151Z,32.46
2018-08-23T11:36:31.145Z,32.26
2018-08-23T11:37:31.143Z,32.03
2018-08-23T11:38:31.152Z,31.77
2018-08-23T11:39:31.154Z,31.55
2018-08-23T11:40:31.163Z,31.34
2018-08-23T11:41:31.174Z,31.14
2018-08-23T11:42:31.172Z,31.18
2018-08-23T11:43:31.181Z,31.15
2018-08-23T11:44:31.183Z,31.00
2018-08-23T11:45:31.189Z,31.12
2018-08-23T11:46:31.195Z,31.21
2018-08-23T11:47:31.202Z,31.43
2018-08-23T11:48:31.216Z,31.58
2018-08-23T11:49:31.215Z,31.71
2018-08-23T11:50:31.224Z,31.80
2018-08-23T11:51:31.228Z,31.77
2018-08-23T11:52:31.234Z,31.76
2018-08-23T11:53:31.371Z,31.85
2018-08-23T11:54:31.244Z,31.94
2018-08-23T11:55:31.252Z,31.97
2018-08-23T11:56:31.255Z,31.99
2018-08-23T11:57:31.263Z,31.36
2018-08-23T11:58:31.267Z,30.83
2018-08-23T11:59:31.276Z,30.63
2018-08-23T12:00:31.281Z,30.44
2018-08-23T12:01:31.313Z,30.47
2018-08-23T12:02:31.293Z,30.47
2018-08-23T12:03:31.302Z,30.46
2018-08-23T12:04:31.299Z,30.25
2018-08-23T12:05:31.313Z,30.43
2018-08-23T12:06:31.837Z,30.47
2018-08-23T12:07:31.318Z,30.24
2018-08-23T12:08:31.322Z,30.31
2018-08-23T12:09:31.327Z,30.25
2018-08-23T12:10:31.333Z,30.30
2018-08-23T12:11:31.340Z,30.19
2018-08-23T12:12:31.346Z,30.24
2018-08-23T12:13:31.354Z,30.31
2018-08-23T12:14:31.355Z,30.57
2018-08-23T12:15:31.376Z,30.66
2018-08-23T12:16:31.365Z,30.72
2018-08-23T12:17:31.380Z,30.83
2018-08-23T12:18:31.369Z,30.78
2018-08-23T12:19:31.377Z,30.81
2018-08-23T12:20:31.384Z,30.88
2018-08-23T12:21:31.390Z,30.90
2018-08-23T12:22:31.392Z,31.09
2018-08-23T12:23:31.400Z,31.18
2018-08-23T12:24:31.405Z,31.29
2018-08-23T12:25:31.416Z,31.29
2018-08-23T12:26:31.416Z,31.27
2018-08-23T12:27:31.418Z,31.43
2018-08-23T12:28:31.422Z,31.54
2018-08-23T12:29:31.431Z,31.74
2018-08-23T12:30:31.434Z,31.76
2018-08-23T12:31:31.470Z,31.77
2018-08-23T12:32:31.443Z,31.87
2018-08-23T12:33:31.450Z,31.77
2018-08-23T12:34:31.451Z,31.80
2018-08-23T12:35:31.459Z,31.77
2018-08-23T12:36:31.468Z,31.73
2018-08-23T12:37:31.473Z,31.73
2018-08-23T12:38:31.479Z,31.62
2018-08-23T12:39:31.481Z,31.61
2018-08-23T12:40:31.503Z,31.54
2018-08-23T12:41:31.490Z,31.46
2018-08-23T12:42:31.502Z,31.36
2018-08-23T12:43:31.590Z,31.29
2018-08-23T12:44:31.504Z,31.31
2018-08-23T12:45:31.516Z,31.31
2018-08-23T12:46:31.558Z,31.37
2018-08-23T12:47:31.529Z,31.40
2018-08-23T12:48:31.529Z,31.54
2018-08-23T12:49:31.646Z,31.56
2018-08-23T12:50:31.554Z,31.47
2018-08-23T12:51:31.544Z,31.51
2018-08-23T12:52:31.562Z,31.44